createdAt,value
2018-12-26T00:00:39.448Z,-1.75
2018-12-26T00:03:12.150Z,-1.72
2018-12-26T00:05:45.098Z,-1.88
2018-12-26T00:08:17.269Z,-2.00
2018-12-26T00:10:49.903Z,-2.08
2018-12-26T00:13:22.640Z,-1.97
2018-12-26T00:15:55.462Z,-2.21
2018-12-26T00:18:28.259Z,-2.13
2018-12-26T00:21:01.006Z,-2.07
2018-12-26T00:23:33.618Z,-1.96
2018-12-26T00:26:06.454Z,-1.80
2018-12-26T00:28:39.066Z,-1.79
2018-12-26T00:31:11.710Z,-1.73
2018-12-26T00:33:44.448Z,-1.81
2018-12-26T00:36:17.199Z,-1.80
2018-12-26T00:38:49.821Z,-1.86
2018-12-26T00:41:22.570Z,-1.91
2018-12-26T00:43:55.370Z,-1.92
2018-12-26T00:46:28.118Z,-1.91
2018-12-26T00:49:00.801Z,-1.97
2018-12-26T00:51:33.441Z,-2.07
2018-12-26T00:54:06.099Z,-2.06
2018-12-26T00:56:38.749Z,-2.05
2018-12-26T00:59:11.518Z,-2.15
2018-12-26T01:01:44.166Z,-2.15
2018-12-26T01:04:16.832Z,-2.24
2018-12-26T01:06:49.532Z,-2.34
2018-12-26T01:09:22.220Z,-2.29
2018-12-26T01:11:54.989Z,-2.23
2018-12-26T01:14:27.683Z,-2.31
2018-12-26T01:17:00.385Z,-2.10
2018-12-26T01:19:33.118Z,-2.08
2018-12-26T01:22:05.793Z,-2.13
2018-12-26T01:24:38.490Z,-2.15
2018-12-26T01:27:12.312Z,-2.10
2018-12-26T01:29:44.951Z,-2.09
2018-12-26T01:32:17.162Z,-2.20
2018-12-26T01:34:49.763Z,-2.27
2018-12-26T01:37:22.430Z,-2.21
2018-12-26T01:39:55.208Z,-2.26
2018-12-26T01:42:27.982Z,-2.21
2018-12-26T01:45:01.522Z,-2.19
2018-12-26T01:47:34.186Z,-2.20
2018-12-26T01:50:07.845Z,-2.20
2018-12-26T01:52:40.523Z,-2.44
2018-12-26T01:55:13.164Z,-2.48
2018-12-26T01:57:45.783Z,-2.45
2018-12-26T02:00:18.765Z,-2.48
2018-12-26T02:02:52.459Z,-2.50
2018-12-26T02:05:25.276Z,-2.48
2018-12-26T02:07:58.968Z,-2.47
2018-12-26T02:10:31.773Z,-2.51
2018-12-26T02:13:04.406Z,-2.67
2018-12-26T02:15:37.086Z,-2.53
2018-12-26T02:18:09.998Z,-2.53
2018-12-26T02:20:42.884Z,-2.62
2018-12-26T02:23:15.525Z,-2.51
2018-12-26T02:25:50.463Z,-2.53
2018-12-26T02:28:24.450Z,-2.58
2018-12-26T02:30:57.137Z,-2.88
2018-12-26T02:33:29.729Z,-3.02
2018-12-26T02:36:02.382Z,-2.94
2018-12-26T02:38:35.008Z,-2.90
2018-12-26T02:41:07.768Z,-2.77
2018-12-26T02:43:40.385Z,-2.82
2018-12-26T02:46:13.112Z,-2.75
2018-12-26T02:48:45.808Z,-2.71
2018-12-26T02:51:18.460Z,-2.94
2018-12-26T02:53:51.169Z,-3.13
2018-12-26T02:56:23.839Z,-3.08
2018-12-26T02:58:56.517Z,-3.19
2018-12-26T03:01:29.184Z,-3.14
2018-12-26T03:04:01.897Z,-3.11
2018-12-26T03:06:34.525Z,-3.15
2018-12-26T03:09:09.317Z,-3.22
2018-12-26T03:11:41.963Z,-3.19
2018-12-26T03:14:14.579Z,-3.25
2018-12-26T03:16:47.235Z,-3.26
2018-12-26T03:19:19.835Z,-3.29
2018-12-26T03:21:52.653Z,-3.36
2018-12-26T03:24:25.393Z,-3.52
2018-12-26T03:26:58.221Z,-3.44
2018-12-26T03:29:30.565Z,-3.43
2018-12-26T03:32:03.242Z,-3.37
2018-12-26T03:34:35.903Z,-3.44
2018-12-26T03:37:08.576Z,-3.56
2018-12-26T03:39:41.407Z,-3.60
2018-12-26T03:42:14.351Z,-3.67
2018-12-26T03:44:48.783Z,-3.71
2018-12-26T03:47:21.910Z,-3.78
2018-12-26T03:49:55.048Z,-3.81
2018-12-26T03:52:27.997Z,-3.94
2018-12-26T03:55:00.676Z,-4.03
2018-12-26T03:57:33.508Z,-4.07
2018-12-26T04:00:07.155Z,-4.14
2018-12-26T04:02:38.987Z,-4.18
2018-12-26T04:05:11.690Z,-4.17
2018-12-26T04:07:44.424Z,-4.27
2018-12-26T04:10:17.196Z,-4.31
2018-12-26T04:12:50.187Z,-4.43
2018-12-26T04:15:22.967Z,-4.49
2018-12-26T04:17:55.596Z,-4.54
2018-12-26T04:20:28.381Z,-4.54
2018-12-26T04:23:01.289Z,-4.61
2018-12-26T04:25:34.614Z,-4.71
2018-12-26T04:28:07.273Z,-4.78
2018-12-26T04:30:41.293Z,-4.83
2018-12-26T04:33:13.913Z,-4.82
2018-12-26T04:35:46.618Z,-4.93
2018-12-26T04:38:19.410Z,-5.02
2018-12-26T04:40:52.070Z,-5.06
2018-12-26T04:43:24.741Z,-5.04
2018-12-26T04:45:57.475Z,-5.07
2018-12-26T04:48:30.193Z,-5.02
2018-12-26T04:51:03.020Z,-5.13
2018-12-26T04:53:35.914Z,-5.24
2018-12-26T04:56:08.766Z,-5.30
2018-12-26T04:58:41.425Z,-5.35
2018-12-26T05:01:14.127Z,-5.42
2018-12-26T05:03:46.786Z,-5.33
2018-12-26T05:06:19.468Z,-5.28
2018-12-26T05:08:52.257Z,-5.24
2018-12-26T05:11:24.935Z,-5.08
2018-12-26T05:13:57.535Z,-5.06
2018-12-26T05:16:30.251Z,-5.02
2018-12-26T05:19:02.918Z,-5.00
2018-12-26T05:21:35.578Z,-4.97
2018-12-26T05:24:08.271Z,-4.90
2018-12-26T05:26:41.006Z,-4.77
2018-12-26T05:29:13.825Z,-4.72
2018-12-26T05:31:46.494Z,-4.65
2018-12-26T05:34:19.554Z,-4.54
2018-12-26T05:36:52.211Z,-4.49
2018-12-26T05:39:24.872Z,-4.45
2018-12-26T05:41:57.293Z,-4.31
2018-12-26T05:44:29.988Z,-4.22
2018-12-26T05:47:02.713Z,-4.17
2018-12-26T05:49:35.542Z,-4.21
2018-12-26T05:52:08.201Z,-4.12
2018-12-26T05:54:41.012Z,-4.29
2018-12-26T05:57:13.658Z,-4.34
2018-12-26T05:59:46.341Z,-4.26
2018-12-26T06:02:19.018Z,-4.22
2018-12-26T06:04:51.715Z,-4.21
2018-12-26T06:07:24.381Z,-4.27
2018-12-26T06:09:57.128Z,-4.46
2018-12-26T06:12:29.778Z,-4.55
2018-12-26T06:15:02.589Z,-4.63
2018-12-26T06:17:35.309Z,-4.82
2018-12-26T06:20:08.120Z,-4.92
2018-12-26T06:22:40.696Z,-5.04
2018-12-26T06:25:13.457Z,-5.24
2018-12-26T06:27:51.411Z,-5.42
2018-12-26T06:30:20.533Z,-5.58
2018-12-26T06:32:53.354Z,-5.65
2018-12-26T06:35:26.651Z,-5.60
2018-12-26T06:38:01.423Z,-5.64
2018-12-26T06:40:33.795Z,-5.70
2018-12-26T06:43:06.387Z,-5.87
2018-12-26T06:45:39.073Z,-6.00
2018-12-26T06:48:11.851Z,-6.05
2018-12-26T06:50:44.752Z,-5.96
2018-12-26T06:53:17.514Z,-6.07
2018-12-26T06:55:50.324Z,-6.04
2018-12-26T06:58:23.062Z,-6.03
2018-12-26T07:00:55.798Z,-6.11
2018-12-26T07:03:28.799Z,-6.30
2018-12-26T07:06:01.461Z,-6.41
2018-12-26T07:08:34.277Z,-6.41
2018-12-26T07:11:06.939Z,-6.51
2018-12-26T07:13:40.046Z,-6.57
2018-12-26T07:16:14.447Z,-6.45
2018-12-26T07:18:47.227Z,-6.29
2018-12-26T07:21:20.010Z,-6.23
2018-12-26T07:23:52.807Z,-6.18
2018-12-26T07:26:25.667Z,-6.22
2018-12-26T07:28:58.400Z,-6.32
2018-12-26T07:31:31.295Z,-6.35
2018-12-26T07:34:05.558Z,-6.29
2018-12-26T07:36:38.172Z,-6.23
2018-12-26T07:39:10.927Z,-6.01
2018-12-26T07:41:43.707Z,-5.91
2018-12-26T07:44:16.367Z,-5.80
2018-12-26T07:46:49.065Z,-5.62
2018-12-26T07:49:28.277Z,-5.44
2018-12-26T07:52:01.023Z,-5.22
2018-12-26T07:54:33.757Z,-5.07
2018-12-26T07:57:06.598Z,-4.94
2018-12-26T07:59:39.243Z,-4.83
2018-12-26T08:02:12.069Z,-4.88
2018-12-26T08:04:44.754Z,-4.81
2018-12-26T08:07:18.871Z,-4.73
2018-12-26T08:09:54.952Z,-4.64
2018-12-26T08:12:27.504Z,-4.69
2018-12-26T08:15:00.178Z,-4.67
2018-12-26T08:17:32.907Z,-4.71
2018-12-26T08:20:06.519Z,-4.50
2018-12-26T08:22:39.271Z,-4.23
2018-12-26T08:25:12.045Z,-4.04
2018-12-26T08:27:44.910Z,-3.66
2018-12-26T08:30:17.677Z,-3.52
2018-12-26T08:32:51.362Z,-2.96
2018-12-26T08:35:24.041Z,-2.93
2018-12-26T08:37:56.746Z,-1.73
2018-12-26T08:40:30.099Z,-1.86
2018-12-26T08:43:49.610Z,-1.63
2018-12-26T08:46:22.271Z,-1.17
2018-12-26T08:48:56.360Z,-0.82
2018-12-26T08:51:29.016Z,-0.61
2018-12-26T08:54:02.495Z,1.82
2018-12-26T08:56:35.133Z,1.67
2018-12-26T08:59:16.225Z,2.08
2018-12-26T09:01:48.891Z,1.17
2018-12-26T09:04:26.909Z,2.21
2018-12-26T09:06:59.555Z,2.47
2018-12-26T09:09:32.199Z,2.02
2018-12-26T09:12:05.347Z,4.47
2018-12-26T09:14:38.046Z,4.93
2018-12-26T09:17:10.068Z,4.16
2018-12-26T09:19:42.778Z,5.90
2018-12-26T09:22:15.552Z,5.57
2018-12-26T09:24:48.221Z,6.45
2018-12-26T09:27:20.897Z,6.60
2018-12-26T09:29:53.543Z,5.33
2018-12-26T09:32:26.207Z,3.37
2018-12-26T09:34:58.867Z,2.21
2018-12-26T09:37:31.492Z,0.90
2018-12-26T09:40:04.264Z,1.14
2018-12-26T09:42:37.056Z,2.39
2018-12-26T09:45:10.236Z,2.76
2018-12-26T09:47:42.889Z,2.73
2018-12-26T09:50:15.688Z,3.06
2018-12-26T09:52:48.475Z,2.82
2018-12-26T09:55:21.141Z,2.70
2018-12-26T09:57:53.803Z,2.89
2018-12-26T10:00:26.475Z,2.41
2018-12-26T10:02:59.204Z,3.23
2018-12-26T10:05:31.853Z,4.41
2018-12-26T10:08:04.895Z,5.01
2018-12-26T10:10:37.655Z,6.00
2018-12-26T10:13:10.330Z,6.39
2018-12-26T10:15:42.991Z,4.72
2018-12-26T10:18:17.083Z,6.13
2018-12-26T10:20:50.752Z,6.51
2018-12-26T10:23:23.539Z,6.32
2018-12-26T10:25:56.382Z,4.57
2018-12-26T10:28:29.086Z,4.59
2018-12-26T10:31:01.690Z,5.60
2018-12-26T10:33:34.368Z,5.43
2018-12-26T10:36:07.120Z,6.18
2018-12-26T10:38:39.827Z,6.37
2018-12-26T10:41:12.629Z,6.22
2018-12-26T10:43:45.347Z,5.71
2018-12-26T10:46:18.016Z,4.23
2018-12-26T10:48:50.799Z,4.63
2018-12-26T10:51:23.521Z,5.76
2018-12-26T10:53:57.195Z,6.36
2018-12-26T10:56:32.724Z,5.94
2018-12-26T10:59:10.081Z,5.46
2018-12-26T11:01:39.828Z,6.10
2018-12-26T11:04:12.521Z,5.17
2018-12-26T11:06:45.215Z,6.74
2018-12-26T11:09:18.001Z,6.29
2018-12-26T11:11:50.760Z,5.92
2018-12-26T11:14:23.456Z,6.09
2018-12-26T11:16:56.145Z,5.98
2018-12-26T11:19:28.780Z,5.98
2018-12-26T11:22:01.404Z,6.70
2018-12-26T11:24:34.058Z,5.90
2018-12-26T11:27:06.713Z,5.22
2018-12-26T11:29:39.390Z,6.72
2018-12-26T11:32:12.071Z,5.45
2018-12-26T11:34:44.671Z,6.95
2018-12-26T11:37:17.353Z,7.67
2018-12-26T11:39:50.138Z,7.00
2018-12-26T11:42:22.881Z,5.45
2018-12-26T11:44:55.698Z,6.24
2018-12-26T11:47:29.160Z,6.77
2018-12-26T11:50:01.884Z,6.35
2018-12-26T11:52:34.572Z,6.52
2018-12-26T11:55:07.806Z,5.98
2018-12-26T11:57:40.461Z,4.98
2018-12-26T12:00:13.606Z,5.42
2018-12-26T12:02:46.208Z,6.48
2018-12-26T12:05:22.062Z,5.71
2018-12-26T12:07:54.716Z,5.20
2018-12-26T12:10:27.393Z,6.33
2018-12-26T12:13:00.030Z,6.85
2018-12-26T12:15:32.807Z,6.94
2018-12-26T12:18:05.495Z,5.71
2018-12-26T12:20:38.250Z,5.95
2018-12-26T12:23:10.925Z,6.10
2018-12-26T12:25:43.511Z,5.60
2018-12-26T12:28:16.262Z,6.39
2018-12-26T12:30:49.110Z,6.27
2018-12-26T12:33:21.740Z,6.72
2018-12-26T12:35:54.526Z,6.66
2018-12-26T12:38:27.173Z,5.76
2018-12-26T12:40:59.868Z,6.30
2018-12-26T12:43:32.609Z,7.89
2018-12-26T12:46:05.267Z,6.31
2018-12-26T12:48:37.966Z,6.14
2018-12-26T12:51:10.586Z,6.95
2018-12-26T12:53:43.346Z,7.19
2018-12-26T12:56:16.001Z,7.99
2018-12-26T12:58:48.758Z,8.58
2018-12-26T13:01:21.513Z,7.59
2018-12-26T13:03:54.284Z,5.97
2018-12-26T13:06:26.977Z,6.60
2018-12-26T13:08:59.602Z,7.26
2018-12-26T13:11:32.402Z,8.38
2018-12-26T13:14:05.163Z,7.97
2018-12-26T13:16:37.884Z,6.81
2018-12-26T13:19:10.562Z,5.98
2018-12-26T13:21:43.229Z,6.22
2018-12-26T13:24:15.960Z,6.53
2018-12-26T13:26:48.596Z,4.68
2018-12-26T13:29:21.401Z,4.94
2018-12-26T13:31:54.020Z,4.30
2018-12-26T13:34:26.724Z,3.31
2018-12-26T13:36:59.469Z,2.81
2018-12-26T13:39:32.295Z,2.72
2018-12-26T13:42:04.979Z,2.81
2018-12-26T13:44:37.753Z,2.31
2018-12-26T13:47:12.240Z,2.76
2018-12-26T13:49:44.919Z,2.87
2018-12-26T13:52:17.554Z,2.64
2018-12-26T13:54:50.211Z,1.82
2018-12-26T13:57:22.872Z,1.72
2018-12-26T14:00:02.281Z,1.45
2018-12-26T14:02:30.179Z,1.43
2018-12-26T14:05:02.864Z,1.57
2018-12-26T14:07:35.529Z,1.61
2018-12-26T14:10:10.668Z,1.59
2018-12-26T14:12:43.337Z,1.60
2018-12-26T14:15:16.058Z,1.53
2018-12-26T14:17:48.708Z,1.58
2018-12-26T14:20:21.352Z,1.17
2018-12-26T14:22:53.997Z,1.23
2018-12-26T14:25:26.667Z,1.14
2018-12-26T14:27:59.385Z,1.09
2018-12-26T14:30:32.023Z,1.17
2018-12-26T14:33:04.837Z,0.88
2018-12-26T14:35:37.564Z,0.97
2018-12-26T14:38:10.295Z,0.83
2018-12-26T14:40:42.980Z,0.98
2018-12-26T14:43:15.647Z,1.02
2018-12-26T14:45:48.449Z,1.08
2018-12-26T14:48:21.211Z,1.07
2018-12-26T14:50:54.037Z,0.88
2018-12-26T14:53:26.736Z,0.97
2018-12-26T14:55:59.358Z,1.01
2018-12-26T14:58:32.162Z,0.78
2018-12-26T15:01:04.920Z,0.88
2018-12-26T15:03:37.663Z,0.84
2018-12-26T15:06:10.599Z,0.72
2018-12-26T15:08:43.338Z,0.61
2018-12-26T15:11:16.025Z,0.50
2018-12-26T15:13:48.616Z,0.43
2018-12-26T15:16:21.438Z,0.10
2018-12-26T15:18:54.162Z,-0.01
2018-12-26T15:21:26.904Z,-0.15
2018-12-26T15:23:59.636Z,-0.25
2018-12-26T15:26:32.363Z,-0.53
2018-12-26T15:29:05.100Z,-0.80
2018-12-26T15:31:38.713Z,-0.98
2018-12-26T15:34:11.765Z,-1.12
2018-12-26T15:36:44.530Z,-1.33
2018-12-26T15:39:17.238Z,-1.44
2018-12-26T15:41:49.889Z,-1.49
2018-12-26T15:44:22.601Z,-1.68
2018-12-26T15:46:55.267Z,-1.73
2018-12-26T15:49:27.936Z,-1.73
2018-12-26T15:52:00.598Z,-1.76
2018-12-26T15:54:33.233Z,-1.90
2018-12-26T15:57:05.991Z,-2.08
2018-12-26T15:59:38.713Z,-2.23
2018-12-26T16:02:11.393Z,-2.31
2018-12-26T16:04:44.065Z,-2.37
2018-12-26T16:07:16.708Z,-2.41
2018-12-26T16:09:49.420Z,-2.43
2018-12-26T16:12:22.023Z,-2.30
2018-12-26T16:14:57.065Z,-2.38
2018-12-26T16:17:30.942Z,-2.39
2018-12-26T16:20:03.572Z,-2.28
2018-12-26T16:22:36.223Z,-2.38
2018-12-26T16:25:09.776Z,-2.27
2018-12-26T16:27:42.477Z,-2.38
2018-12-26T16:30:15.184Z,-2.50
2018-12-26T16:32:47.839Z,-2.57
2018-12-26T16:35:20.551Z,-2.58
2018-12-26T16:38:01.325Z,-2.57
2018-12-26T16:40:27.593Z,-2.63
2018-12-26T16:43:00.285Z,-2.63
2018-12-26T16:45:32.983Z,-2.59
2018-12-26T16:48:05.719Z,-2.64
2018-12-26T16:50:38.658Z,-2.69
2018-12-26T16:53:11.366Z,-2.69
2018-12-26T16:55:46.845Z,-2.75
2018-12-26T16:58:19.588Z,-2.75
2018-12-26T17:00:55.170Z,-2.89
2018-12-26T17:03:26.836Z,-2.90
2018-12-26T17:05:59.498Z,-3.02
2018-12-26T17:08:32.241Z,-3.04
2018-12-26T17:11:04.951Z,-3.07
2018-12-26T17:13:38.622Z,-3.11
2018-12-26T17:16:11.790Z,-3.00
2018-12-26T17:18:44.521Z,-3.12
2018-12-26T17:21:17.273Z,-3.27
2018-12-26T17:23:49.910Z,-3.32
2018-12-26T17:26:22.604Z,-3.21
2018-12-26T17:28:55.538Z,-3.25
2018-12-26T17:31:28.151Z,-3.18
2018-12-26T17:34:00.861Z,-3.10
2018-12-26T17:36:33.667Z,-3.04
2018-12-26T17:39:08.794Z,-3.06
2018-12-26T17:41:41.489Z,-3.12
2018-12-26T17:44:14.230Z,-3.09
2018-12-26T17:46:46.900Z,-3.11
2018-12-26T17:49:19.698Z,-3.10
2018-12-26T17:51:52.755Z,-3.22
2018-12-26T17:55:19.088Z,-3.31
2018-12-26T17:57:58.286Z,-3.44
2018-12-26T18:00:58.439Z,-3.43
2018-12-26T18:03:31.166Z,-3.47
2018-12-26T18:06:04.875Z,-3.45
2018-12-26T18:08:39.779Z,-3.41
2018-12-26T18:11:13.419Z,-3.39
2018-12-26T18:13:46.064Z,-3.40
2018-12-26T18:16:18.762Z,-3.45
2018-12-26T18:18:51.420Z,-3.45
2018-12-26T18:21:24.077Z,-3.51
2018-12-26T18:23:56.763Z,-3.54
2018-12-26T18:26:29.492Z,-3.63
2018-12-26T18:29:02.245Z,-3.64
2018-12-26T18:31:36.777Z,-3.69
2018-12-26T18:34:09.751Z,-3.74
2018-12-26T18:36:43.212Z,-3.75
2018-12-26T18:39:15.987Z,-3.78
2018-12-26T18:41:48.678Z,-3.84
2018-12-26T18:44:21.339Z,-3.76
2018-12-26T18:46:54.124Z,-3.66
2018-12-26T18:49:26.741Z,-3.71
2018-12-26T18:51:59.514Z,-3.67
2018-12-26T18:54:32.232Z,-3.68
2018-12-26T18:57:04.934Z,-3.81
2018-12-26T18:59:37.610Z,-3.87
2018-12-26T19:02:10.379Z,-3.98
2018-12-26T19:04:43.096Z,-3.85
2018-12-26T19:07:15.867Z,-3.89
2018-12-26T19:09:48.618Z,-3.89
2018-12-26T19:12:20.747Z,-3.82
2018-12-26T19:14:53.426Z,-3.86
2018-12-26T19:17:26.191Z,-3.87
2018-12-26T19:19:58.884Z,-3.89
2018-12-26T19:22:31.564Z,-3.86
2018-12-26T19:25:04.174Z,-3.87
2018-12-26T19:27:36.850Z,-3.92
2018-12-26T19:30:13.464Z,-3.87
2018-12-26T19:32:47.291Z,-3.87
2018-12-26T19:35:19.949Z,-3.94
2018-12-26T19:37:52.737Z,-3.99
2018-12-26T19:40:25.453Z,-4.08
2018-12-26T19:42:58.134Z,-4.12
2018-12-26T19:45:31.769Z,-4.04
2018-12-26T19:48:04.614Z,-3.99
2018-12-26T19:50:37.398Z,-4.02
2018-12-26T19:53:10.174Z,-4.10
2018-12-26T19:55:42.944Z,-4.16
2018-12-26T19:58:15.624Z,-4.03
2018-12-26T20:00:48.539Z,-4.06
2018-12-26T20:03:21.284Z,-4.00
2018-12-26T20:05:54.016Z,-3.97
2018-12-26T20:08:26.738Z,-3.96
2018-12-26T20:10:59.459Z,-4.04
2018-12-26T20:13:32.181Z,-4.13
2018-12-26T20:16:04.859Z,-4.18
2018-12-26T20:18:37.560Z,-4.15
2018-12-26T20:21:12.274Z,-4.17
2018-12-26T20:23:45.035Z,-4.19
2018-12-26T20:26:17.730Z,-4.27
2018-12-26T20:28:50.412Z,-4.32
2018-12-26T20:31:23.045Z,-4.30
2018-12-26T20:33:55.818Z,-4.23
2018-12-26T20:36:28.499Z,-4.26
2018-12-26T20:39:00.862Z,-4.17
2018-12-26T20:41:33.708Z,-4.14
2018-12-26T20:44:06.379Z,-4.17
2018-12-26T20:46:39.037Z,-4.18
2018-12-26T20:49:11.810Z,-4.25
2018-12-26T20:51:44.538Z,-4.34
2018-12-26T20:54:17.241Z,-4.32
2018-12-26T20:56:49.982Z,-4.37
2018-12-26T20:59:22.546Z,-4.41
2018-12-26T21:01:55.306Z,-4.40
2018-12-26T21:04:27.935Z,-4.38
2018-12-26T21:07:00.649Z,-4.32
2018-12-26T21:09:33.444Z,-4.33
2018-12-26T21:12:06.284Z,-4.31
2018-12-26T21:14:39.459Z,-4.29
2018-12-26T21:17:12.133Z,-4.38
2018-12-26T21:19:44.822Z,-4.39
2018-12-26T21:22:17.509Z,-4.50
2018-12-26T21:24:50.262Z,-4.57
2018-12-26T21:27:23.002Z,-4.49
2018-12-26T21:29:55.738Z,-4.51
2018-12-26T21:32:32.111Z,-4.41
2018-12-26T21:35:05.340Z,-4.45
2018-12-26T21:37:37.958Z,-4.50
2018-12-26T21:40:11.602Z,-4.55
2018-12-26T21:42:44.313Z,-4.64
2018-12-26T21:45:17.216Z,-4.72
2018-12-26T21:47:50.249Z,-4.71
2018-12-26T21:50:22.905Z,-4.66
2018-12-26T21:52:55.776Z,-4.67
2018-12-26T21:55:28.518Z,-4.68
2018-12-26T21:58:01.682Z,-4.64
2018-12-26T22:00:34.384Z,-4.63
2018-12-26T22:03:07.098Z,-4.59
2018-12-26T22:05:39.888Z,-4.62
2018-12-26T22:08:12.855Z,-4.65
2018-12-26T22:10:45.525Z,-4.62
2018-12-26T22:13:19.327Z,-4.67
2018-12-26T22:15:53.871Z,-4.70
2018-12-26T22:18:27.977Z,-4.68
2018-12-26T22:21:00.731Z,-4.67
2018-12-26T22:23:34.261Z,-4.70
2018-12-26T22:26:06.959Z,-4.60
2018-12-26T22:28:39.754Z,-4.58
2018-12-26T22:31:12.403Z,-4.55
2018-12-26T22:33:45.146Z,-4.63
2018-12-26T22:36:17.868Z,-4.56
2018-12-26T22:38:50.591Z,-4.50
2018-12-26T22:41:23.308Z,-4.67
2018-12-26T22:43:55.970Z,-4.76
2018-12-26T22:46:28.809Z,-4.70
2018-12-26T22:49:01.704Z,-4.63
2018-12-26T22:51:41.645Z,-4.72
2018-12-26T22:54:08.965Z,-4.81
2018-12-26T22:56:41.670Z,-4.80
2018-12-26T22:59:14.382Z,-4.81
2018-12-26T23:01:47.014Z,-4.79
2018-12-26T23:04:22.387Z,-4.78
2018-12-26T23:06:56.356Z,-4.87
2018-12-26T23:09:29.028Z,-4.83
2018-12-26T23:12:01.713Z,-4.91
2018-12-26T23:14:34.374Z,-4.91
2018-12-26T23:17:08.199Z,-4.90
2018-12-26T23:19:41.055Z,-4.89
2018-12-26T23:22:13.762Z,-4.82
2018-12-26T23:24:46.467Z,-4.70
2018-12-26T23:27:19.141Z,-4.68
2018-12-26T23:29:51.792Z,-4.61
2018-12-26T23:32:24.379Z,-4.69
2018-12-26T23:34:57.869Z,-4.82
2018-12-26T23:37:30.468Z,-4.93
2018-12-26T23:40:03.117Z,-4.93
2018-12-26T23:42:36.025Z,-4.85
2018-12-26T23:45:09.031Z,-4.89
2018-12-26T23:47:41.621Z,-4.95
2018-12-26T23:50:15.602Z,-5.06
2018-12-26T23:52:48.263Z,-4.97
2018-12-26T23:55:20.914Z,-4.98
2018-12-26T23:57:53.665Z,-4.91
